EYW weather

Key West International Airport
Key West, Florida, United States

Public forecast

Using degrees Fahrenheit for public forecast. Weather courtesy of forecast.io.

METAR (pilot weather report)

Retrieved 2019/05/22 09:53 UTC (35 minutes ago):

KEYW 220953Z AUTO 11011KT 10SM FEW028 27/22 A2997 RMK AO2 SLP149 T02670217

TAF (pilot weather forecast)

Retrieved 2019/05/22 06:42 UTC (4 hours ago):

TAF KEYW 220540Z 2206/2306 10012G19KT P6SM SCT025 FM220800 10009KT P6SM SCT025 FM222100 10013G21KT P6SM SCT028